sensor_id;sensor_type;location;lat;lon;timestamp;pressure;altitude;pressure_sealevel;temperature;humidity
64739;BME280;51175;51.186;0.276;2022-12-18T00:00:04;101964.03;;;6.66;67.66
64739;BME280;51175;51.186;0.276;2022-12-18T00:00:42;101966.66;;;6.66;67.73
64739;BME280;51175;51.186;0.276;2022-12-18T00:01:26;101956.16;;;6.66;67.78
64739;BME280;51175;51.186;0.276;2022-12-18T00:01:58;101958.16;;;6.64;67.68
64739;BME280;51175;51.186;0.276;2022-12-18T00:02:31;101958.16;;;6.64;67.70
64739;BME280;51175;51.186;0.276;2022-12-18T00:03:01;101957.34;;;6.64;67.82
64739;BME280;51175;51.186;0.276;2022-12-18T00:03:35;101962.59;;;6.64;67.68
64739;BME280;51175;51.186;0.276;2022-12-18T00:04:07;101970.47;;;6.64;67.59
64739;BME280;51175;51.186;0.276;2022-12-18T00:04:43;101968.84;;;6.63;67.81
64739;BME280;51175;51.186;0.276;2022-12-18T00:05:13;101973.28;;;6.62;67.69
64739;BME280;51175;51.186;0.276;2022-12-18T00:05:48;101970.47;;;6.64;67.88
64739;BME280;51175;51.186;0.276;2022-12-18T00:06:19;101965.41;;;6.62;67.75
64739;BME280;51175;51.186;0.276;2022-12-18T00:06:50;101972.28;;;6.63;67.63
64739;BME280;51175;51.186;0.276;2022-12-18T00:07:20;101967.03;;;6.63;67.85
64739;BME280;51175;51.186;0.276;2022-12-18T00:07:50;101957.53;;;6.62;67.71
64739;BME280;51175;51.186;0.276;2022-12-18T00:08:21;101968.03;;;6.62;67.74
64739;BME280;51175;51.186;0.276;2022-12-18T00:08:52;101965.41;;;6.62;67.70
64739;BME280;51175;51.186;0.276;2022-12-18T00:09:22;101959.16;;;6.63;67.57
64739;BME280;51175;51.186;0.276;2022-12-18T00:09:53;101964.41;;;6.63;67.54
64739;BME280;51175;51.186;0.276;2022-12-18T00:10:23;101958.53;;;6.61;67.55
64739;BME280;51175;51.186;0.276;2022-12-18T00:10:53;101955.91;;;6.61;67.44
64739;BME280;51175;51.186;0.276;2022-12-18T00:11:26;101959.38;;;6.62;67.61
64739;BME280;51175;51.186;0.276;2022-12-18T00:11:57;101955.91;;;6.61;67.57
64739;BME280;51175;51.186;0.276;2022-12-18T00:12:27;101958.53;;;6.61;67.68
64739;BME280;51175;51.186;0.276;2022-12-18T00:12:57;101955.09;;;6.61;67.72
64739;BME280;51175;51.186;0.276;2022-12-18T00:13:28;101952.47;;;6.61;67.71
64739;BME280;51175;51.186;0.276;2022-12-18T00:13:59;101955.09;;;6.61;67.66
64739;BME280;51175;51.186;0.276;2022-12-18T00:14:30;101953.50;;;6.60;67.68
64739;BME280;51175;51.186;0.276;2022-12-18T00:15:00;101953.50;;;6.60;67.65
64739;BME280;51175;51.186;0.276;2022-12-18T00:15:33;101955.09;;;6.61;67.76
64739;BME280;51175;51.186;0.276;2022-12-18T00:16:06;101950.03;;;6.59;67.78
64739;BME280;51175;51.186;0.276;2022-12-18T00:16:37;101954.50;;;6.58;67.89
64739;BME280;51175;51.186;0.276;2022-12-18T00:17:07;101942.38;;;6.57;67.61
64739;BME280;51175;51.186;0.276;2022-12-18T00:17:38;101948.44;;;6.58;67.74
64739;BME280;51175;51.186;0.276;2022-12-18T00:18:09;101947.63;;;6.57;67.81
64739;BME280;51175;51.186;0.276;2022-12-18T00:18:40;101941.56;;;6.57;67.83
64739;BME280;51175;51.186;0.276;2022-12-18T00:19:11;101952.06;;;6.57;67.85
64739;BME280;51175;51.186;0.276;2022-12-18T00:19:42;101944.19;;;6.57;67.73
64739;BME280;51175;51.186;0.276;2022-12-18T00:20:12;101944.19;;;6.57;67.70
64739;BME280;51175;51.186;0.276;2022-12-18T00:20:43;101946.00;;;6.56;67.80
64739;BME280;51175;51.186;0.276;2022-12-18T00:21:14;101936.53;;;6.55;67.61
64739;BME280;51175;51.186;0.276;2022-12-18T00:21:45;101942.38;;;6.57;67.81
64739;BME280;51175;51.186;0.276;2022-12-18T00:22:18;101935.50;;;6.56;67.77
64739;BME280;51175;51.186;0.276;2022-12-18T00:22:48;101938.13;;;6.56;67.69
64739;BME280;51175;51.186;0.276;2022-12-18T00:23:18;101936.31;;;6.57;67.65
64739;BME280;51175;51.186;0.276;2022-12-18T00:23:49;101932.69;;;6.58;67.69
64739;BME280;51175;51.186;0.276;2022-12-18T00:24:20;101944.00;;;6.58;67.76
64739;BME280;51175;51.186;0.276;2022-12-18T00:24:50;101943.19;;;6.58;67.75
64739;BME280;51175;51.186;0.276;2022-12-18T00:25:21;101944.00;;;6.58;67.48
64739;BME280;51175;51.186;0.276;2022-12-18T00:25:52;101945.00;;;6.57;67.76
64739;BME280;51175;51.186;0.276;2022-12-18T00:26:30;101945.00;;;6.57;67.63
64739;BME280;51175;51.186;0.276;2022-12-18T00:27:00;101937.13;;;6.57;67.79
64739;BME280;51175;51.186;0.276;2022-12-18T00:27:31;101938.94;;;6.57;67.65
64739;BME280;51175;51.186;0.276;2022-12-18T00:28:02;101940.75;;;6.56;67.71
64739;BME280;51175;51.186;0.276;2022-12-18T00:28:33;101936.31;;;6.57;67.70
64739;BME280;51175;51.186;0.276;2022-12-18T00:29:13;101940.75;;;6.56;67.66
64739;BME280;51175;51.186;0.276;2022-12-18T00:29:44;101930.25;;;6.56;67.71
64739;BME280;51175;51.186;0.276;2022-12-18T00:30:14;101939.16;;;6.55;67.79
64739;BME280;51175;51.186;0.276;2022-12-18T00:30:45;101928.66;;;6.55;67.76
64739;BME280;51175;51.186;0.276;2022-12-18T00:31:18;101935.69;;;6.55;67.61
64739;BME280;51175;51.186;0.276;2022-12-18T00:31:49;101931.28;;;6.55;67.65
64739;BME280;51175;51.186;0.276;2022-12-18T00:32:19;101932.25;;;6.54;67.56
64739;BME280;51175;51.186;0.276;2022-12-18T00:32:52;101926.22;;;6.54;67.68
64739;BME280;51175;51.186;0.276;2022-12-18T00:33:23;101928.84;;;6.54;67.52
64739;BME280;51175;51.186;0.276;2022-12-18T00:33:54;101923.59;;;6.54;67.55
64739;BME280;51175;51.186;0.276;2022-12-18T00:34:26;101923.59;;;6.54;67.70
64739;BME280;51175;51.186;0.276;2022-12-18T00:34:56;101925.41;;;6.53;67.72
64739;BME280;51175;51.186;0.276;2022-12-18T00:35:26;101920.16;;;6.53;67.63
64739;BME280;51175;51.186;0.276;2022-12-18T00:36:01;101926.41;;;6.52;67.76
64739;BME280;51175;51.186;0.276;2022-12-18T00:36:34;101919.34;;;6.53;67.75
64739;BME280;51175;51.186;0.276;2022-12-18T00:37:04;101925.41;;;6.53;67.86
64739;BME280;51175;51.186;0.276;2022-12-18T00:37:34;101921.97;;;6.53;67.77
64739;BME280;51175;51.186;0.276;2022-12-18T00:38:05;101917.72;;;6.52;67.82
64739;BME280;51175;51.186;0.276;2022-12-18T00:38:38;101918.53;;;6.52;67.85
64739;BME280;51175;51.186;0.276;2022-12-18T00:39:10;101924.78;;;6.51;67.76
64739;BME280;51175;51.186;0.276;2022-12-18T00:39:41;101919.53;;;6.51;67.70
64739;BME280;51175;51.186;0.276;2022-12-18T00:40:11;101921.38;;;6.51;67.55
64739;BME280;51175;51.186;0.276;2022-12-18T00:40:42;101918.75;;;6.51;67.66
64739;BME280;51175;51.186;0.276;2022-12-18T00:41:14;101921.38;;;6.51;67.44
64739;BME280;51175;51.186;0.276;2022-12-18T00:42:04;101920.53;;;6.50;67.64
64739;BME280;51175;51.186;0.276;2022-12-18T00:42:54;101919.72;;;6.50;67.70
64739;BME280;51175;51.186;0.276;2022-12-18T00:43:27;101923.38;;;6.49;67.80
64739;BME280;51175;51.186;0.276;2022-12-18T00:43:58;101922.53;;;6.48;67.54
64739;BME280;51175;51.186;0.276;2022-12-18T00:44:28;101919.91;;;6.48;67.73
64739;BME280;51175;51.186;0.276;2022-12-18T00:44:58;101920.75;;;6.49;67.71
64739;BME280;51175;51.186;0.276;2022-12-18T00:45:30;101920.75;;;6.49;67.71
64739;BME280;51175;51.186;0.276;2022-12-18T00:46:01;101919.72;;;6.50;67.85
64739;BME280;51175;51.186;0.276;2022-12-18T00:46:31;101917.09;;;6.50;67.75
64739;BME280;51175;51.186;0.276;2022-12-18T00:47:02;101914.47;;;6.50;67.87
64739;BME280;51175;51.186;0.276;2022-12-18T00:47:32;101914.47;;;6.50;67.63
64739;BME280;51175;51.186;0.276;2022-12-18T00:48:03;101915.50;;;6.49;67.50
64739;BME280;51175;51.186;0.276;2022-12-18T00:48:33;101914.47;;;6.50;67.40
64739;BME280;51175;51.186;0.276;2022-12-18T00:49:04;101918.13;;;6.49;67.28
64739;BME280;51175;51.186;0.276;2022-12-18T00:49:34;101918.13;;;6.49;67.45
64739;BME280;51175;51.186;0.276;2022-12-18T00:50:05;101916.50;;;6.48;67.59
64739;BME280;51175;51.186;0.276;2022-12-18T00:50:36;101921.75;;;6.48;67.61
64739;BME280;51175;51.186;0.276;2022-12-18T00:51:06;101916.50;;;6.48;67.55
64739;BME280;51175;51.186;0.276;2022-12-18T00:51:39;101920.94;;;6.47;67.59
64739;BME280;51175;51.186;0.276;2022-12-18T00:52:09;101926.19;;;6.47;67.63
64739;BME280;51175;51.186;0.276;2022-12-18T00:52:40;101923.75;;;6.45;67.60
64739;BME280;51175;51.186;0.276;2022-12-18T00:53:11;101918.69;;;6.44;67.59
64739;BME280;51175;51.186;0.276;2022-12-18T00:53:41;101914.28;;;6.44;67.65
64739;BME280;51175;51.186;0.276;2022-12-18T00:54:12;101916.06;;;6.44;67.63
64739;BME280;51175;51.186;0.276;2022-12-18T00:54:42;101915.25;;;6.43;67.71
64739;BME280;51175;51.186;0.276;2022-12-18T00:55:13;101915.25;;;6.43;67.74
64739;BME280;51175;51.186;0.276;2022-12-18T00:55:44;101920.50;;;6.43;67.72
64739;BME280;51175;51.186;0.276;2022-12-18T00:56:15;101915.25;;;6.43;67.79
64739;BME280;51175;51.186;0.276;2022-12-18T00:56:46;101918.69;;;6.44;67.72
64739;BME280;51175;51.186;0.276;2022-12-18T00:57:16;101915.25;;;6.43;67.63
64739;BME280;51175;51.186;0.276;2022-12-18T00:57:47;101912.44;;;6.45;67.41
64739;BME280;51175;51.186;0.276;2022-12-18T00:58:17;101918.50;;;6.45;67.46
64739;BME280;51175;51.186;0.276;2022-12-18T00:58:48;101915.88;;;6.45;67.77
64739;BME280;51175;51.186;0.276;2022-12-18T00:59:18;101916.69;;;6.46;67.54
64739;BME280;51175;51.186;0.276;2022-12-18T00:59:49;101918.31;;;6.47;67.56
64739;BME280;51175;51.186;0.276;2022-12-18T01:00:20;101914.88;;;6.46;67.36
64739;BME280;51175;51.186;0.276;2022-12-18T01:00:50;101920.13;;;6.46;67.45
64739;BME280;51175;51.186;0.276;2022-12-18T01:01:21;101926.19;;;6.47;67.56
64739;BME280;51175;51.186;0.276;2022-12-18T01:01:51;101920.31;;;6.45;67.47
64739;BME280;51175;51.186;0.276;2022-12-18T01:02:21;101923.75;;;6.45;67.61
64739;BME280;51175;51.186;0.276;2022-12-18T01:02:52;101923.75;;;6.45;67.59
64739;BME280;51175;51.186;0.276;2022-12-18T01:03:22;101924.56;;;6.46;67.53
64739;BME280;51175;51.186;0.276;2022-12-18T01:03:52;101919.53;;;6.44;67.63
64739;BME280;51175;51.186;0.276;2022-12-18T01:04:23;101913.44;;;6.44;67.71
64739;BME280;51175;51.186;0.276;2022-12-18T01:04:53;101921.31;;;6.44;67.70
64739;BME280;51175;51.186;0.276;2022-12-18T01:05:24;101919.72;;;6.43;67.63
64739;BME280;51175;51.186;0.276;2022-12-18T01:05:54;101912.84;;;6.42;67.71
64739;BME280;51175;51.186;0.276;2022-12-18T01:06:25;101915.47;;;6.42;67.56
64739;BME280;51175;51.186;0.276;2022-12-18T01:06:55;101909.41;;;6.41;67.51
64739;BME280;51175;51.186;0.276;2022-12-18T01:07:25;101912.03;;;6.41;67.58
64739;BME280;51175;51.186;0.276;2022-12-18T01:07:56;101909.41;;;6.41;67.51
64739;BME280;51175;51.186;0.276;2022-12-18T01:08:27;101912.84;;;6.42;67.63
64739;BME280;51175;51.186;0.276;2022-12-18T01:08:57;101900.72;;;6.41;67.55
64739;BME280;51175;51.186;0.276;2022-12-18T01:09:27;101910.41;;;6.40;67.63
64739;BME280;51175;51.186;0.276;2022-12-18T01:09:59;101909.41;;;6.41;67.73
64739;BME280;51175;51.186;0.276;2022-12-18T01:10:29;101907.59;;;6.42;67.79
64739;BME280;51175;51.186;0.276;2022-12-18T01:11:00;101907.59;;;6.42;67.47
64739;BME280;51175;51.186;0.276;2022-12-18T01:11:31;101908.41;;;6.42;67.47
64739;BME280;51175;51.186;0.276;2022-12-18T01:12:01;101906.78;;;6.41;67.36
64739;BME280;51175;51.186;0.276;2022-12-18T01:12:32;101906.78;;;6.41;67.41
64739;BME280;51175;51.186;0.276;2022-12-18T01:13:03;101908.59;;;6.41;67.54
64739;BME280;51175;51.186;0.276;2022-12-18T01:13:33;101911.22;;;6.41;67.69
64739;BME280;51175;51.186;0.276;2022-12-18T01:14:04;101902.53;;;6.40;67.43
64739;BME280;51175;51.186;0.276;2022-12-18T01:14:34;101903.34;;;6.41;67.46
64739;BME280;51175;51.186;0.276;2022-12-18T01:15:06;101903.34;;;6.41;67.37
64739;BME280;51175;51.186;0.276;2022-12-18T01:15:37;101899.91;;;6.40;67.30
64739;BME280;51175;51.186;0.276;2022-12-18T01:16:07;101897.28;;;6.40;67.37
64739;BME280;51175;51.186;0.276;2022-12-18T01:16:38;101899.91;;;6.40;67.51
64739;BME280;51175;51.186;0.276;2022-12-18T01:17:09;101896.50;;;6.40;67.48
64739;BME280;51175;51.186;0.276;2022-12-18T01:17:39;101900.09;;;6.39;67.44
64739;BME280;51175;51.186;0.276;2022-12-18T01:18:10;101897.47;;;6.39;67.37
64739;BME280;51175;51.186;0.276;2022-12-18T01:18:40;101899.31;;;6.38;67.19
64739;BME280;51175;51.186;0.276;2022-12-18T01:19:11;101901.13;;;6.38;66.97
64739;BME280;51175;51.186;0.276;2022-12-18T01:19:41;101897.66;;;6.37;67.15
64739;BME280;51175;51.186;0.276;2022-12-18T01:20:12;101897.66;;;6.37;67.23
64739;BME280;51175;51.186;0.276;2022-12-18T01:20:43;101903.75;;;6.38;67.35
64739;BME280;51175;51.186;0.276;2022-12-18T01:21:15;101898.50;;;6.38;67.39
64739;BME280;51175;51.186;0.276;2022-12-18T01:21:46;101895.88;;;6.38;67.22
64739;BME280;51175;51.186;0.276;2022-12-18T01:22:16;101901.94;;;6.38;67.08
64739;BME280;51175;51.186;0.276;2022-12-18T01:22:46;101892.22;;;6.39;67.24
64739;BME280;51175;51.186;0.276;2022-12-18T01:23:17;101883.56;;;6.38;67.30
64739;BME280;51175;51.186;0.276;2022-12-18T01:23:51;101885.38;;;6.38;67.30
64739;BME280;51175;51.186;0.276;2022-12-18T01:24:22;101887.19;;;6.37;67.51
64739;BME280;51175;51.186;0.276;2022-12-18T01:24:52;101892.22;;;6.39;67.34
64739;BME280;51175;51.186;0.276;2022-12-18T01:25:23;101891.44;;;6.38;67.41
64739;BME280;51175;51.186;0.276;2022-12-18T01:25:53;101888.00;;;6.38;67.39
64739;BME280;51175;51.186;0.276;2022-12-18T01:26:25;101888.81;;;6.38;67.35
64739;BME280;51175;51.186;0.276;2022-12-18T01:26:55;101895.06;;;6.37;67.42
64739;BME280;51175;51.186;0.276;2022-12-18T01:27:27;101889.00;;;6.37;67.08
64739;BME280;51175;51.186;0.276;2022-12-18T01:27:57;101891.63;;;6.37;67.30
64739;BME280;51175;51.186;0.276;2022-12-18T01:28:28;101893.25;;;6.38;67.13
64739;BME280;51175;51.186;0.276;2022-12-18T01:28:58;101895.06;;;6.37;67.15
64739;BME280;51175;51.186;0.276;2022-12-18T01:29:28;101889.00;;;6.37;67.25
64739;BME280;51175;51.186;0.276;2022-12-18T01:29:59;101888.19;;;6.36;67.18
64739;BME280;51175;51.186;0.276;2022-12-18T01:30:29;101889.22;;;6.35;67.18
64739;BME280;51175;51.186;0.276;2022-12-18T01:31:40;101882.31;;;6.34;67.29
64739;BME280;51175;51.186;0.276;2022-12-18T01:32:11;101884.16;;;6.33;67.26
64739;BME280;51175;51.186;0.276;2022-12-18T01:32:41;101882.50;;;6.32;67.32
64739;BME280;51175;51.186;0.276;2022-12-18T01:33:12;101882.50;;;6.32;67.32
64739;BME280;51175;51.186;0.276;2022-12-18T01:33:43;101880.09;;;6.31;67.24
64739;BME280;51175;51.186;0.276;2022-12-18T01:34:14;101886.94;;;6.32;67.38
64739;BME280;51175;51.186;0.276;2022-12-18T01:34:44;101886.94;;;6.32;67.50
64739;BME280;51175;51.186;0.276;2022-12-18T01:35:15;101885.34;;;6.31;67.54
64739;BME280;51175;51.186;0.276;2022-12-18T01:35:45;101882.72;;;6.31;67.44
64739;BME280;51175;51.186;0.276;2022-12-18T01:36:47;101878.47;;;6.30;67.25
64739;BME280;51175;51.186;0.276;2022-12-18T01:37:18;101880.09;;;6.31;67.29
64739;BME280;51175;51.186;0.276;2022-12-18T01:37:49;101882.72;;;6.31;67.71
64739;BME280;51175;51.186;0.276;2022-12-18T01:38:19;101880.28;;;6.29;67.46
64739;BME280;51175;51.186;0.276;2022-12-18T01:38:50;101878.47;;;6.30;67.39
64739;BME280;51175;51.186;0.276;2022-12-18T01:39:21;101879.28;;;6.30;67.56
64739;BME280;51175;51.186;0.276;2022-12-18T01:39:52;101876.06;;;6.28;67.55
64739;BME280;51175;51.186;0.276;2022-12-18T01:40:25;101872.41;;;6.29;67.61
64739;BME280;51175;51.186;0.276;2022-12-18T01:41:01;101869.78;;;6.29;67.47
64739;BME280;51175;51.186;0.276;2022-12-18T01:41:32;101876.84;;;6.29;67.45
64739;BME280;51175;51.186;0.276;2022-12-18T01:42:22;101871.59;;;6.29;67.47
64739;BME280;51175;51.186;0.276;2022-12-18T01:42:52;101867.34;;;6.28;67.59
64739;BME280;51175;51.186;0.276;2022-12-18T01:43:51;101871.59;;;6.29;67.64
64739;BME280;51175;51.186;0.276;2022-12-18T01:45:31;101867.34;;;6.28;67.48
64739;BME280;51175;51.186;0.276;2022-12-18T01:46:02;101864.94;;;6.26;67.55
64739;BME280;51175;51.186;0.276;2022-12-18T01:46:33;101868.56;;;6.25;67.41
64739;BME280;51175;51.186;0.276;2022-12-18T01:47:03;101865.94;;;6.25;67.40
64739;BME280;51175;51.186;0.276;2022-12-18T01:47:41;101871.19;;;6.25;67.53
64739;BME280;51175;51.186;0.276;2022-12-18T01:48:13;101868.56;;;6.25;67.59
64739;BME280;51175;51.186;0.276;2022-12-18T01:48:45;101868.56;;;6.25;67.53
64739;BME280;51175;51.186;0.276;2022-12-18T01:49:16;101865.13;;;6.25;67.54
64739;BME280;51175;51.186;0.276;2022-12-18T01:49:47;101861.69;;;6.24;67.56
64739;BME280;51175;51.186;0.276;2022-12-18T01:50:32;101860.91;;;6.24;67.68
64739;BME280;51175;51.186;0.276;2022-12-18T01:51:04;101857.47;;;6.23;67.64
64739;BME280;51175;51.186;0.276;2022-12-18T01:51:35;101862.69;;;6.23;67.60
64739;BME280;51175;51.186;0.276;2022-12-18T01:52:05;101863.72;;;6.22;67.56
64739;BME280;51175;51.186;0.276;2022-12-18T01:52:36;101864.50;;;6.23;67.58
64739;BME280;51175;51.186;0.276;2022-12-18T01:53:17;101859.25;;;6.23;67.39
64739;BME280;51175;51.186;0.276;2022-12-18T01:53:49;101859.44;;;6.21;67.44
64739;BME280;51175;51.186;0.276;2022-12-18T01:54:19;101861.28;;;6.20;67.39
64739;BME280;51175;51.186;0.276;2022-12-18T01:54:50;101853.41;;;6.20;67.38
64739;BME280;51175;51.186;0.276;2022-12-18T01:55:26;101856.84;;;6.21;67.55
64739;BME280;51175;51.186;0.276;2022-12-18T01:55:58;101853.41;;;6.20;67.39
64739;BME280;51175;51.186;0.276;2022-12-18T01:56:29;101852.59;;;6.20;67.57
64739;BME280;51175;51.186;0.276;2022-12-18T01:56:59;101848.97;;;6.21;67.63
64739;BME280;51175;51.186;0.276;2022-12-18T01:57:31;101853.41;;;6.20;67.33
64739;BME280;51175;51.186;0.276;2022-12-18T01:58:02;101857.03;;;6.19;67.17
64739;BME280;51175;51.186;0.276;2022-12-18T01:58:48;101853.41;;;6.20;67.38
64739;BME280;51175;51.186;0.276;2022-12-18T01:59:22;101855.03;;;6.21;67.48
64739;BME280;51175;51.186;0.276;2022-12-18T01:59:53;101857.84;;;6.20;67.44
64739;BME280;51175;51.186;0.276;2022-12-18T02:00:27;101847.34;;;6.20;67.50
64739;BME280;51175;51.186;0.276;2022-12-18T02:00:58;101851.78;;;6.19;67.44
64739;BME280;51175;51.186;0.276;2022-12-18T02:01:30;101853.41;;;6.20;67.19
64739;BME280;51175;51.186;0.276;2022-12-18T02:02:01;101853.63;;;6.19;67.24
64739;BME280;51175;51.186;0.276;2022-12-18T02:02:32;101846.53;;;6.19;67.32
64739;BME280;51175;51.186;0.276;2022-12-18T02:03:03;101844.94;;;6.18;67.44
64739;BME280;51175;51.186;0.276;2022-12-18T02:03:33;101845.75;;;6.19;67.57
64739;BME280;51175;51.186;0.276;2022-12-18T02:04:33;101845.75;;;6.19;67.62
64739;BME280;51175;51.186;0.276;2022-12-18T02:05:04;101844.09;;;6.18;67.67
64739;BME280;51175;51.186;0.276;2022-12-18T02:07:02;101844.31;;;6.16;67.62
64739;BME280;51175;51.186;0.276;2022-12-18T02:07:48;101846.94;;;6.16;67.63
64739;BME280;51175;51.186;0.276;2022-12-18T02:09:47;101846.34;;;6.14;67.79
64739;BME280;51175;51.186;0.276;2022-12-18T02:10:28;101836.81;;;6.13;67.54
64739;BME280;51175;51.186;0.276;2022-12-18T02:11:10;101842.06;;;6.13;67.59
64739;BME280;51175;51.186;0.276;2022-12-18T02:12:16;101850.75;;;6.14;67.29
64739;BME280;51175;51.186;0.276;2022-12-18T02:15:11;101851.16;;;6.11;67.43
64739;BME280;51175;51.186;0.276;2022-12-18T02:16:52;101858.19;;;6.10;67.30
64739;BME280;51175;51.186;0.276;2022-12-18T02:17:47;101852.16;;;6.10;67.42
64739;BME280;51175;51.186;0.276;2022-12-18T02:18:27;101858.41;;;6.08;67.45
64739;BME280;51175;51.186;0.276;2022-12-18T02:19:01;101861.03;;;6.08;67.29
64739;BME280;51175;51.186;0.276;2022-12-18T02:21:09;101863.06;;;6.06;67.63
64739;BME280;51175;51.186;0.276;2022-12-18T02:21:52;101869.09;;;6.07;67.62
64739;BME280;51175;51.186;0.276;2022-12-18T02:22:56;101869.09;;;6.07;67.66
64739;BME280;51175;51.186;0.276;2022-12-18T02:23:50;101869.28;;;6.05;67.66
64739;BME280;51175;51.186;0.276;2022-12-18T02:24:53;101871.91;;;6.05;67.76
64739;BME280;51175;51.186;0.276;2022-12-18T02:27:00;101872.06;;;6.04;67.53
64739;BME280;51175;51.186;0.276;2022-12-18T02:27:33;101867.84;;;6.03;67.63
64739;BME280;51175;51.186;0.276;2022-12-18T02:28:06;101869.44;;;6.04;67.46
64739;BME280;51175;51.186;0.276;2022-12-18T02:28:49;101869.44;;;6.04;67.60
64739;BME280;51175;51.186;0.276;2022-12-18T02:29:30;101878.31;;;6.03;67.80
64739;BME280;51175;51.186;0.276;2022-12-18T02:30:04;101876.72;;;6.02;67.90
64739;BME280;51175;51.186;0.276;2022-12-18T02:30:37;101876.72;;;6.02;67.83
64739;BME280;51175;51.186;0.276;2022-12-18T02:31:11;101876.72;;;6.02;67.82
64739;BME280;51175;51.186;0.276;2022-12-18T02:31:51;101882.16;;;6.00;67.93
64739;BME280;51175;51.186;0.276;2022-12-18T02:32:28;101883.78;;;6.01;67.78
64739;BME280;51175;51.186;0.276;2022-12-18T02:33:01;101880.31;;;6.01;67.97
64739;BME280;51175;51.186;0.276;2022-12-18T02:33:34;101884.78;;;6.00;67.96
64739;BME280;51175;51.186;0.276;2022-12-18T02:34:07;101880.31;;;6.01;67.93
64739;BME280;51175;51.186;0.276;2022-12-18T02:34:39;101885.56;;;6.01;67.96
64739;BME280;51175;51.186;0.276;2022-12-18T02:35:14;101879.53;;;6.00;67.81
64739;BME280;51175;51.186;0.276;2022-12-18T02:35:45;101883.78;;;6.01;67.64
64739;BME280;51175;51.186;0.276;2022-12-18T02:36:17;101881.16;;;6.01;67.93
64739;BME280;51175;51.186;0.276;2022-12-18T02:36:49;101881.97;;;6.02;67.87
64739;BME280;51175;51.186;0.276;2022-12-18T02:37:21;101884.59;;;6.02;67.53
64739;BME280;51175;51.186;0.276;2022-12-18T02:37:54;101883.56;;;6.03;67.57
64739;BME280;51175;51.186;0.276;2022-12-18T02:38:28;101887.00;;;6.03;67.55
64739;BME280;51175;51.186;0.276;2022-12-18T02:39:00;101882.56;;;6.04;67.57
64739;BME280;51175;51.186;0.276;2022-12-18T02:39:33;101884.41;;;6.03;67.63
64739;BME280;51175;51.186;0.276;2022-12-18T02:40:04;101885.19;;;6.04;67.49
64739;BME280;51175;51.186;0.276;2022-12-18T02:40:36;101884.41;;;6.03;67.62
64739;BME280;51175;51.186;0.276;2022-12-18T02:41:11;101882.56;;;6.04;67.65
64739;BME280;51175;51.186;0.276;2022-12-18T02:41:41;101886.19;;;6.03;67.62
64739;BME280;51175;51.186;0.276;2022-12-18T02:42:12;101886.19;;;6.03;67.77
64739;BME280;51175;51.186;0.276;2022-12-18T02:42:43;101888.00;;;6.02;67.72
64739;BME280;51175;51.186;0.276;2022-12-18T02:43:14;101887.00;;;6.03;67.76
64739;BME280;51175;51.186;0.276;2022-12-18T02:43:55;101886.19;;;6.03;67.60
64739;BME280;51175;51.186;0.276;2022-12-18T02:44:25;101888.81;;;6.03;67.50
64739;BME280;51175;51.186;0.276;2022-12-18T02:44:56;101887.81;;;6.04;67.57
64739;BME280;51175;51.186;0.276;2022-12-18T02:45:26;101892.25;;;6.03;67.52
64739;BME280;51175;51.186;0.276;2022-12-18T02:45:59;101890.44;;;6.04;67.29
64739;BME280;51175;51.186;0.276;2022-12-18T02:46:35;101891.44;;;6.03;67.22
64739;BME280;51175;51.186;0.276;2022-12-18T02:47:10;101889.63;;;6.03;67.16
64739;BME280;51175;51.186;0.276;2022-12-18T02:47:43;101889.63;;;6.03;67.18
64739;BME280;51175;51.186;0.276;2022-12-18T02:48:16;101884.41;;;6.03;67.24
64739;BME280;51175;51.186;0.276;2022-12-18T02:48:47;101887.00;;;6.03;67.23
64739;BME280;51175;51.186;0.276;2022-12-18T02:50:24;101883.41;;;6.04;67.27
64739;BME280;51175;51.186;0.276;2022-12-18T02:51:31;101884.41;;;6.03;67.28
64739;BME280;51175;51.186;0.276;2022-12-18T02:52:45;101881.97;;;6.02;67.30
64739;BME280;51175;51.186;0.276;2022-12-18T02:54:10;101884.78;;;6.00;67.32
64739;BME280;51175;51.186;0.276;2022-12-18T02:56:31;101886.16;;;5.96;67.30
64739;BME280;51175;51.186;0.276;2022-12-18T02:58:04;101887.16;;;5.95;67.40
64739;BME280;51175;51.186;0.276;2022-12-18T02:58:52;101888.78;;;5.96;67.23
64739;BME280;51175;51.186;0.276;2022-12-18T02:59:35;101881.09;;;5.94;67.34
64739;BME280;51175;51.186;0.276;2022-12-18T03:01:15;101884.75;;;5.93;67.59
64739;BME280;51175;51.186;0.276;2022-12-18T03:01:58;101884.94;;;5.92;67.49
64739;BME280;51175;51.186;0.276;2022-12-18T03:02:48;101887.75;;;5.90;67.52
64739;BME280;51175;51.186;0.276;2022-12-18T03:03:59;101893.00;;;5.90;67.46
64739;BME280;51175;51.186;0.276;2022-12-18T03:04:40;101900.03;;;5.90;67.61
64739;BME280;51175;51.186;0.276;2022-12-18T03:06:01;101903.47;;;5.90;67.59
64739;BME280;51175;51.186;0.276;2022-12-18T03:06:40;101899.03;;;5.91;67.70
64739;BME280;51175;51.186;0.276;2022-12-18T03:07:18;101895.63;;;5.90;67.46
64739;BME280;51175;51.186;0.276;2022-12-18T03:08:01;101906.09;;;5.90;67.45
64739;BME280;51175;51.186;0.276;2022-12-18T03:08:38;101904.28;;;5.91;67.45
64739;BME280;51175;51.186;0.276;2022-12-18T03:09:14;101903.28;;;5.92;67.52
64739;BME280;51175;51.186;0.276;2022-12-18T03:09:49;101906.91;;;5.91;67.43
64739;BME280;51175;51.186;0.276;2022-12-18T03:10:25;101903.28;;;5.92;67.39
64739;BME280;51175;51.186;0.276;2022-12-18T03:11:02;101894.59;;;5.91;67.62
64739;BME280;51175;51.186;0.276;2022-12-18T03:11:34;101898.22;;;5.90;67.59
64739;BME280;51175;51.186;0.276;2022-12-18T03:12:30;101901.66;;;5.91;67.45
64739;BME280;51175;51.186;0.276;2022-12-18T03:13:06;101893.00;;;5.90;67.58
64739;BME280;51175;51.186;0.276;2022-12-18T03:13:52;101886.94;;;5.90;67.49
64739;BME280;51175;51.186;0.276;2022-12-18T03:14:23;101891.34;;;5.89;67.68
64739;BME280;51175;51.186;0.276;2022-12-18T03:15:44;101885.31;;;5.89;67.65
64739;BME280;51175;51.186;0.276;2022-12-18T03:16:20;101887.13;;;5.88;67.83
64739;BME280;51175;51.186;0.276;2022-12-18T03:16:54;101881.06;;;5.88;67.72